Pacific Glacier — WRYH — position and weather

sailwx.info

Track history (hours):
 
Tides and Currents Weather Stations Pressure Air Temp Water Temp Dewpoint Dewpoint Depression Visibility Wind Speed Wind Dir Waves Ship Positions

Pacific Glacier

Owner: GLACIER FISH COMPANY, SEATTLE, WA. More information available from US FCC via Universal Licensing System and Coast Guard Vessel Documentation Center.

Last reported at 2017-Oct-18 21:24 UTC. Time now 2017-Oct-19 23:44 UTC.
Position N 44°21' W 124°57'.

Length 90 m.

Type: Fishing. MMSI: 366946000.

Date/timePositionNaut miles runAvg speedWind from/ knotsBaromVisibWave heightAir tempDewpointWater temp
2017-Oct-18 21:24N 44°21' W 124°57'7 0.3
2017-Oct-18 00:18N 44°25' W 124°50'5 0.4
2017-Oct-17 13:16N 44°29' W 124°46'2 2.8
2017-Oct-17 12:36N 44°28' W 124°47'1 3.3
2017-Oct-17 12:26N 44°27' W 124°47'2 3.7
2017-Oct-17 11:57N 44°25' W 124°48'2 3.7
2017-Oct-17 11:30N 44°24' W 124°49'2 3.4
2017-Oct-17 11:00N 44°22' W 124°50'2 3.4
2017-Oct-17 10:30N 44°21' W 124°51'2 3.9
2017-Oct-17 10:00N 44°19' W 124°52'2 3.2
2017-Oct-17 09:30N 44°18' W 124°53'2 2.5
2017-Oct-17 08:46N 44°18' W 124°56'1 2.6
2017-Oct-17 08:30N 44°19' W 124°55'2 2.9
2017-Oct-17 07:55N 44°19' W 124°53'2 3.0
2017-Oct-17 07:25N 44°20' W 124°51'1 2.2
2017-Oct-17 07:00N 44°21' W 124°50'2 3.4
2017-Oct-17 06:30N 44°22' W 124°50'4 3.5
2017-Oct-17 05:29N 44°26' W 124°49'2 4.3
2017-Oct-17 05:00N 44°28' W 124°47'1 2.3
2017-Oct-17 04:23N 44°26' W 124°48'1 2.8
2017-Oct-17 03:57N 44°25' W 124°49'2 3.1
2017-Oct-17 03:11N 44°23' W 124°49'1 3.6
2017-Oct-17 03:00N 44°22' W 124°50'2 3.6
2017-Oct-17 02:30N 44°20' W 124°50'2 3.7
2017-Oct-17 02:00N 44°19' W 124°52'2 4.0
2017-Oct-17 01:23N 44°18' W 124°54'3 2.5
2017-Oct-17 00:16N 44°19' W 124°52'2 2.9
2017-Oct-16 23:45N 44°21' W 124°51'1 2.9
2017-Oct-16 23:30N 44°21' W 124°50'2 2.8
2017-Oct-16 22:58N 44°23' W 124°49'2 2.9
2017-Oct-16 22:21N 44°25' W 124°49'3 3.4
2017-Oct-16 21:28N 44°28' W 124°49'1 2.4
2017-Oct-16 21:00N 44°28' W 124°48'1 1.4
2017-Oct-16 20:30N 44°27' W 124°47'2 2.7
2017-Oct-16 19:50N 44°25' W 124°48'1 2.2
2017-Oct-16 19:22N 44°24' W 124°49'1 3.4
2017-Oct-16 18:59N 44°23' W 124°49'1 1.3
2017-Oct-16 18:22N 44°24' W 124°49'2 4.9
2017-Oct-16 17:59N 44°26' W 124°48'2 2.9
2017-Oct-16 17:26N 44°27' W 124°47'2 2.8
2017-Oct-16 16:40N 44°29' W 124°47'1 3.4
2017-Oct-16 16:23N 44°30' W 124°46'1 2.4
2017-Oct-16 15:58N 44°29' W 124°46'2 2.9
2017-Oct-16 15:24N 44°27' W 124°47'2 4.0
2017-Oct-16 14:50N 44°25' W 124°48'1 0.9
2017-Oct-16 14:10N 44°25' W 124°48'3 3.0
2017-Oct-16 13:09N 44°28' W 124°47'1 3.0
2017-Oct-16 12:48N 44°29' W 124°47'1 3.1
2017-Oct-16 12:30N 44°30' W 124°47'2 3.0
2017-Oct-16 11:56N 44°32' W 124°46'1 2.4
2017-Oct-16 11:30N 44°32' W 124°45'2 3.4
2017-Oct-16 11:00N 44°30' W 124°45'2 3.4
2017-Oct-16 10:26N 44°29' W 124°46'1 2.5
2017-Oct-16 09:56N 44°28' W 124°48'3 2.0
2017-Oct-16 08:39N 44°31' W 124°47'0 3.1
2017-Oct-16 08:30N 44°31' W 124°46'1 1.7
2017-Oct-16 07:54N 44°30' W 124°45'2 3.5
2017-Oct-16 07:21N 44°29' W 124°46'1 3.4
2017-Oct-16 07:00N 44°28' W 124°47'2 3.6
2017-Oct-16 06:30N 44°26' W 124°48'4 7.5
2017-Oct-16 05:59N 44°30' W 124°48'1 2.7
2017-Oct-16 05:30N 44°31' W 124°46'1 1.7
2017-Oct-16 04:58N 44°30' W 124°45'4 3.6
2017-Oct-16 03:49N 44°26' W 124°47'5 2.6
2017-Oct-16 01:48N 44°31' W 124°44'1 2.6
2017-Oct-16 01:29N 44°30' W 124°45'1 2.3
2017-Oct-16 00:56N 44°29' W 124°46'1 3.3
2017-Oct-16 00:30N 44°28' W 124°47'2 3.5
2017-Oct-15 23:50N 44°26' W 124°48'4 3.1
2017-Oct-15 22:33N 44°30' W 124°47'0 3.0
2017-Oct-15 22:30N 44°30' W 124°47'1 1.8
2017-Oct-15 22:00N 44°30' W 124°45'2 3.0
2017-Oct-15 21:26N 44°28' W 124°46'1 1.0
2017-Oct-15 20:49N 44°29' W 124°46'1 1.7
2017-Oct-15 20:30N 44°29' W 124°46'0 0.3
2017-Oct-15 19:00N 44°29' W 124°46'2 2.8
2017-Oct-15 18:26N 44°27' W 124°47'1 2.8
2017-Oct-15 17:58N 44°26' W 124°47'3 1.0
2017-Oct-15 15:14N 44°24' W 124°50'1 3.3
2017-Oct-15 14:56N 44°23' W 124°50'4 1.5
2017-Oct-15 11:59N 44°27' W 124°53'3 2.3
2017-Oct-15 10:46N 44°25' W 124°50'20 3.0
2017-Oct-15 04:03N 44°06' W 124°59'0 3.5
2017-Oct-15 03:58N 44°05' W 124°59'2 3.3
2017-Oct-15 03:30N 44°04' W 124°59'4 3.4
2017-Oct-15 02:26N 44°00' W 124°58'11 3.6
2017-Oct-14 23:28N 44°10' W 125°04'3 3.4
2017-Oct-14 22:39N 44°13' W 125°04'1 3.6
2017-Oct-14 22:30N 44°13' W 125°04'2 3.4
2017-Oct-14 22:00N 44°14' W 125°02'2 3.6
2017-Oct-14 21:30N 44°15' W 124°60'2 3.3
2017-Oct-14 21:00N 44°16' W 124°58'2 3.5
2017-Oct-14 20:30N 44°17' W 124°57'2 3.3
2017-Oct-14 20:00N 44°19' W 124°56'2 3.8
2017-Oct-14 19:30N 44°20' W 124°54'4 7.2
2017-Oct-14 19:00N 44°23' W 124°52'5 9.8
2017-Oct-14 18:30N 44°28' W 124°52'2 3.1
2017-Oct-14 17:58N 44°30' W 124°53'4 3.5
2017-Oct-14 16:56N 44°33' W 124°54'  
2017-Oct-10 23:51N 46°22' W 125°20'612.5
2017-Oct-10 23:25N 46°27' W 125°20'712.7
2017-Oct-10 22:54N 46°34' W 125°21'812.8
2017-Oct-10 22:16N 46°42' W 125°21'413.0
2017-Oct-10 22:00N 46°45' W 125°21'10513.1
2017-Oct-10 13:59N 48°29' W 125°02'511.0
2017-Oct-10 13:30N 48°30' W 124°55'611.7
2017-Oct-10 13:00N 48°30' W 124°46'612.1
2017-Oct-10 12:30N 48°29' W 124°37'612.3
2017-Oct-10 12:00N 48°27' W 124°28'612.2
2017-Oct-10 11:30N 48°24' W 124°20'612.5
2017-Oct-10 11:00N 48°22' W 124°11'612.2
2017-Oct-10 10:30N 48°19' W 124°03'713.1
2017-Oct-10 09:58N 48°17' W 123°53'814.1
2017-Oct-10 09:26N 48°16' W 123°42'714.6
2017-Oct-10 08:58N 48°15' W 123°32'714.5
2017-Oct-10 08:30N 48°14' W 123°22'815.0
2017-Oct-10 07:59N 48°13' W 123°10'814.7
2017-Oct-10 07:28N 48°12' W 122°59'815.4
2017-Oct-10 06:57N 48°11' W 122°47'916.1
2017-Oct-10 06:23N 48°04' W 122°38'616.4
2017-Oct-10 06:00N 47°59' W 122°35'714.2
2017-Oct-10 05:30N 47°53' W 122°28'713.9
2017-Oct-10 05:00N 47°46' W 122°26'713.5
2017-Oct-10 04:31N 47°40' W 122°27'611.4
2017-Oct-10 04:00N 47°35' W 122°21'0 0.0
2017-Oct-10 03:30N 47°35' W 122°21'0 0.0
2017-Oct-10 03:00N 47°35' W 122°21'0 0.0
2017-Oct-10 02:30N 47°35' W 122°21'0 0.0
2017-Oct-10 02:00N 47°35' W 122°21'0 0.0
2017-Oct-10 01:30N 47°35' W 122°21'0 0.0
2017-Oct-10 01:00N 47°35' W 122°21'0 0.0
2017-Oct-10 00:30N 47°35' W 122°21'0 0.0
2017-Oct-10 00:00N 47°35' W 122°21'2 4.8
2017-Oct-09 23:30N 47°37' W 122°23'0 0.4
2017-Oct-09 23:00N 47°38' W 122°23'0 0.1
2017-Oct-09 22:30N 47°38' W 122°23'0 0.0
2017-Oct-09 22:00N 47°38' W 122°23'0 0.0
2017-Oct-09 21:30N 47°38' W 122°23'0 0.0
2017-Oct-09 21:00N 47°38' W 122°23'0 0.0
2017-Oct-09 20:30N 47°38' W 122°23'0 0.0
2017-Oct-09 20:00N 47°38' W 122°23'0 0.1
2017-Oct-09 19:30N 47°38' W 122°23'0 0.1
2017-Oct-09 19:01N 47°38' W 122°23'0 0.0
2017-Oct-09 18:30N 47°38' W 122°23'0 0.0
2017-Oct-09 18:00N 47°38' W 122°23'0 0.0
2017-Oct-09 17:30N 47°38' W 122°23'0 0.0
2017-Oct-09 17:00N 47°38' W 122°23'0 0.0
2017-Oct-09 16:30N 47°38' W 122°23'0 0.0
2017-Oct-09 16:00N 47°38' W 122°23'0 0.0
2017-Oct-09 15:30N 47°38' W 122°23'0 0.0
2017-Oct-09 15:00N 47°38' W 122°23'0 0.0
2017-Oct-09 14:30N 47°38' W 122°23'0 0.1
2017-Oct-09 14:00N 47°38' W 122°23'0 0.1
2017-Oct-09 13:30N 47°38' W 122°23'0 0.0
2017-Oct-09 13:00N 47°38' W 122°23'0 0.0
2017-Oct-09 12:30N 47°38' W 122°23'0 0.0
2017-Oct-09 12:00N 47°38' W 122°23'0 0.0
2017-Oct-09 11:30N 47°38' W 122°23'0 0.1
2017-Oct-09 11:00N 47°38' W 122°23'0 0.1
2017-Oct-09 10:30N 47°38' W 122°23'0 0.0
2017-Oct-09 10:00N 47°38' W 122°23'0 0.0
2017-Oct-09 09:31N 47°38' W 122°23'0 0.0
2017-Oct-09 09:00N 47°38' W 122°23'0 0.0
2017-Oct-09 08:30N 47°38' W 122°23'0 0.0
2017-Oct-09 08:00N 47°38' W 122°23'0 0.0
2017-Oct-09 07:30N 47°38' W 122°23'0 0.0
2017-Oct-09 07:00N 47°38' W 122°23'0 0.0
2017-Oct-09 06:30N 47°38' W 122°23'0 0.0
2017-Oct-09 06:00N 47°38' W 122°23'0 0.0
2017-Oct-09 05:30N 47°38' W 122°23'0 0.0
2017-Oct-09 05:00N 47°38' W 122°23'0 0.0
2017-Oct-09 04:30N 47°38' W 122°23'0 0.0
2017-Oct-09 04:00N 47°38' W 122°23'0 0.0
2017-Oct-09 03:30N 47°38' W 122°23'0 0.0
2017-Oct-09 03:00N 47°38' W 122°23'0 0.0
2017-Oct-09 02:30N 47°38' W 122°23'0 0.0
2017-Oct-09 02:00N 47°38' W 122°23'0 0.0
2017-Oct-09 01:30N 47°38' W 122°23'0 0.0
2017-Oct-09 01:00N 47°38' W 122°23'0 0.0
2017-Oct-09 00:30N 47°38' W 122°23'0 0.0
2017-Oct-09 00:00N 47°38' W 122°23'0 0.0
2017-Oct-08 23:30N 47°38' W 122°23'0 0.0
2017-Oct-08 23:00N 47°38' W 122°23'0 0.0
2017-Oct-08 22:30N 47°38' W 122°23'0 0.0
2017-Oct-08 22:00N 47°38' W 122°23'0 0.0
2017-Oct-08 21:30N 47°38' W 122°23'  
Track history (hours):
 
Tides and Currents Weather Stations Pressure Air Temp Water Temp Dewpoint Dewpoint Depression Visibility Wind Speed Wind Dir Waves Ship Positions

Pacific Glacier

Owner: GLACIER FISH COMPANY, SEATTLE, WA. More information available from US FCC via Universal Licensing System and Coast Guard Vessel Documentation Center.

Last reported at 2017-Oct-18 21:24 UTC. Time now 2017-Oct-19 23:44 UTC.
Position N 44°21' W 124°57'.

Length 90 m.

Type: Fishing. MMSI: 366946000.

Date/timePositionNaut miles runAvg speedWind from/ knotsBaromVisibWave heightAir tempDewpointWater temp
2017-Oct-18 21:24N 44°21' W 124°57'7 0.3
2017-Oct-18 00:18N 44°25' W 124°50'5 0.4
2017-Oct-17 13:16N 44°29' W 124°46'2 2.8
2017-Oct-17 12:36N 44°28' W 124°47'1 3.3
2017-Oct-17 12:26N 44°27' W 124°47'2 3.7
2017-Oct-17 11:57N 44°25' W 124°48'2 3.7
2017-Oct-17 11:30N 44°24' W 124°49'2 3.4
2017-Oct-17 11:00N 44°22' W 124°50'2 3.4
2017-Oct-17 10:30N 44°21' W 124°51'2 3.9
2017-Oct-17 10:00N 44°19' W 124°52'2 3.2
2017-Oct-17 09:30N 44°18' W 124°53'2 2.5
2017-Oct-17 08:46N 44°18' W 124°56'1 2.6
2017-Oct-17 08:30N 44°19' W 124°55'2 2.9
2017-Oct-17 07:55N 44°19' W 124°53'2 3.0
2017-Oct-17 07:25N 44°20' W 124°51'1 2.2
2017-Oct-17 07:00N 44°21' W 124°50'2 3.4
2017-Oct-17 06:30N 44°22' W 124°50'4 3.5
2017-Oct-17 05:29N 44°26' W 124°49'2 4.3
2017-Oct-17 05:00N 44°28' W 124°47'1 2.3
2017-Oct-17 04:23N 44°26' W 124°48'1 2.8
2017-Oct-17 03:57N 44°25' W 124°49'2 3.1
2017-Oct-17 03:11N 44°23' W 124°49'1 3.6
2017-Oct-17 03:00N 44°22' W 124°50'2 3.6
2017-Oct-17 02:30N 44°20' W 124°50'2 3.7
2017-Oct-17 02:00N 44°19' W 124°52'2 4.0
2017-Oct-17 01:23N 44°18' W 124°54'3 2.5
2017-Oct-17 00:16N 44°19' W 124°52'2 2.9
2017-Oct-16 23:45N 44°21' W 124°51'1 2.9
2017-Oct-16 23:30N 44°21' W 124°50'2 2.8
2017-Oct-16 22:58N 44°23' W 124°49'2 2.9
2017-Oct-16 22:21N 44°25' W 124°49'3 3.4
2017-Oct-16 21:28N 44°28' W 124°49'1 2.4
2017-Oct-16 21:00N 44°28' W 124°48'1 1.4
2017-Oct-16 20:30N 44°27' W 124°47'2 2.7
2017-Oct-16 19:50N 44°25' W 124°48'1 2.2
2017-Oct-16 19:22N 44°24' W 124°49'1 3.4
2017-Oct-16 18:59N 44°23' W 124°49'1 1.3
2017-Oct-16 18:22N 44°24' W 124°49'2 4.9
2017-Oct-16 17:59N 44°26' W 124°48'2 2.9
2017-Oct-16 17:26N 44°27' W 124°47'2 2.8
2017-Oct-16 16:40N 44°29' W 124°47'1 3.4
2017-Oct-16 16:23N 44°30' W 124°46'1 2.4
2017-Oct-16 15:58N 44°29' W 124°46'2 2.9
2017-Oct-16 15:24N 44°27' W 124°47'2 4.0
2017-Oct-16 14:50N 44°25' W 124°48'1 0.9
2017-Oct-16 14:10N 44°25' W 124°48'3 3.0
2017-Oct-16 13:09N 44°28' W 124°47'1 3.0
2017-Oct-16 12:48N 44°29' W 124°47'1 3.1
2017-Oct-16 12:30N 44°30' W 124°47'2 3.0
2017-Oct-16 11:56N 44°32' W 124°46'1 2.4
2017-Oct-16 11:30N 44°32' W 124°45'2 3.4
2017-Oct-16 11:00N 44°30' W 124°45'2 3.4
2017-Oct-16 10:26N 44°29' W 124°46'1 2.5
2017-Oct-16 09:56N 44°28' W 124°48'3 2.0
2017-Oct-16 08:39N 44°31' W 124°47'0 3.1
2017-Oct-16 08:30N 44°31' W 124°46'1 1.7
2017-Oct-16 07:54N 44°30' W 124°45'2 3.5
2017-Oct-16 07:21N 44°29' W 124°46'1 3.4
2017-Oct-16 07:00N 44°28' W 124°47'2 3.6
2017-Oct-16 06:30N 44°26' W 124°48'4 7.5
2017-Oct-16 05:59N 44°30' W 124°48'1 2.7
2017-Oct-16 05:30N 44°31' W 124°46'1 1.7
2017-Oct-16 04:58N 44°30' W 124°45'4 3.6
2017-Oct-16 03:49N 44°26' W 124°47'5 2.6
2017-Oct-16 01:48N 44°31' W 124°44'1 2.6
2017-Oct-16 01:29N 44°30' W 124°45'1 2.3
2017-Oct-16 00:56N 44°29' W 124°46'1 3.3
2017-Oct-16 00:30N 44°28' W 124°47'2 3.5
2017-Oct-15 23:50N 44°26' W 124°48'4 3.1
2017-Oct-15 22:33N 44°30' W 124°47'0 3.0
2017-Oct-15 22:30N 44°30' W 124°47'1 1.8
2017-Oct-15 22:00N 44°30' W 124°45'2 3.0
2017-Oct-15 21:26N 44°28' W 124°46'1 1.0
2017-Oct-15 20:49N 44°29' W 124°46'1 1.7
2017-Oct-15 20:30N 44°29' W 124°46'0 0.3
2017-Oct-15 19:00N 44°29' W 124°46'2 2.8
2017-Oct-15 18:26N 44°27' W 124°47'1 2.8
2017-Oct-15 17:58N 44°26' W 124°47'3 1.0
2017-Oct-15 15:14N 44°24' W 124°50'1 3.3
2017-Oct-15 14:56N 44°23' W 124°50'4 1.5
2017-Oct-15 11:59N 44°27' W 124°53'3 2.3
2017-Oct-15 10:46N 44°25' W 124°50'20 3.0
2017-Oct-15 04:03N 44°06' W 124°59'0 3.5
2017-Oct-15 03:58N 44°05' W 124°59'2 3.3
2017-Oct-15 03:30N 44°04' W 124°59'4 3.4
2017-Oct-15 02:26N 44°00' W 124°58'11 3.6
2017-Oct-14 23:28N 44°10' W 125°04'3 3.4
2017-Oct-14 22:39N 44°13' W 125°04'1 3.6
2017-Oct-14 22:30N 44°13' W 125°04'2 3.4
2017-Oct-14 22:00N 44°14' W 125°02'2 3.6
2017-Oct-14 21:30N 44°15' W 124°60'2 3.3
2017-Oct-14 21:00N 44°16' W 124°58'2 3.5
2017-Oct-14 20:30N 44°17' W 124°57'2 3.3
2017-Oct-14 20:00N 44°19' W 124°56'2 3.8
2017-Oct-14 19:30N 44°20' W 124°54'4 7.2
2017-Oct-14 19:00N 44°23' W 124°52'5 9.8
2017-Oct-14 18:30N 44°28' W 124°52'2 3.1
2017-Oct-14 17:58N 44°30' W 124°53'4 3.5
2017-Oct-14 16:56N 44°33' W 124°54'  
2017-Oct-10 23:51N 46°22' W 125°20'612.5
2017-Oct-10 23:25N 46°27' W 125°20'712.7
2017-Oct-10 22:54N 46°34' W 125°21'812.8
2017-Oct-10 22:16N 46°42' W 125°21'413.0
2017-Oct-10 22:00N 46°45' W 125°21'10513.1
2017-Oct-10 13:59N 48°29' W 125°02'511.0
2017-Oct-10 13:30N 48°30' W 124°55'611.7
2017-Oct-10 13:00N 48°30' W 124°46'612.1
2017-Oct-10 12:30N 48°29' W 124°37'612.3
2017-Oct-10 12:00N 48°27' W 124°28'612.2
2017-Oct-10 11:30N 48°24' W 124°20'612.5
2017-Oct-10 11:00N 48°22' W 124°11'612.2
2017-Oct-10 10:30N 48°19' W 124°03'713.1
2017-Oct-10 09:58N 48°17' W 123°53'814.1
2017-Oct-10 09:26N 48°16' W 123°42'714.6
2017-Oct-10 08:58N 48°15' W 123°32'714.5
2017-Oct-10 08:30N 48°14' W 123°22'815.0
2017-Oct-10 07:59N 48°13' W 123°10'814.7
2017-Oct-10 07:28N 48°12' W 122°59'815.4
2017-Oct-10 06:57N 48°11' W 122°47'916.1
2017-Oct-10 06:23N 48°04' W 122°38'616.4
2017-Oct-10 06:00N 47°59' W 122°35'714.2
2017-Oct-10 05:30N 47°53' W 122°28'713.9
2017-Oct-10 05:00N 47°46' W 122°26'713.5
2017-Oct-10 04:31N 47°40' W 122°27'611.4
2017-Oct-10 04:00N 47°35' W 122°21'0 0.0
2017-Oct-10 03:30N 47°35' W 122°21'0 0.0
2017-Oct-10 03:00N 47°35' W 122°21'0 0.0
2017-Oct-10 02:30N 47°35' W 122°21'0 0.0
2017-Oct-10 02:00N 47°35' W 122°21'0 0.0
2017-Oct-10 01:30N 47°35' W 122°21'0 0.0
2017-Oct-10 01:00N 47°35' W 122°21'0 0.0
2017-Oct-10 00:30N 47°35' W 122°21'0 0.0
2017-Oct-10 00:00N 47°35' W 122°21'2 4.8
2017-Oct-09 23:30N 47°37' W 122°23'0 0.4
2017-Oct-09 23:00N 47°38' W 122°23'0 0.1
2017-Oct-09 22:30N 47°38' W 122°23'0 0.0
2017-Oct-09 22:00N 47°38' W 122°23'0 0.0
2017-Oct-09 21:30N 47°38' W 122°23'0 0.0
2017-Oct-09 21:00N 47°38' W 122°23'0 0.0
2017-Oct-09 20:30N 47°38' W 122°23'0 0.0
2017-Oct-09 20:00N 47°38' W 122°23'0 0.1
2017-Oct-09 19:30N 47°38' W 122°23'0 0.1
2017-Oct-09 19:01N 47°38' W 122°23'0 0.0
2017-Oct-09 18:30N 47°38' W 122°23'0 0.0
2017-Oct-09 18:00N 47°38' W 122°23'0 0.0
2017-Oct-09 17:30N 47°38' W 122°23'0 0.0
2017-Oct-09 17:00N 47°38' W 122°23'0 0.0
2017-Oct-09 16:30N 47°38' W 122°23'0 0.0
2017-Oct-09 16:00N 47°38' W 122°23'0 0.0
2017-Oct-09 15:30N 47°38' W 122°23'0 0.0
2017-Oct-09 15:00N 47°38' W 122°23'0 0.0
2017-Oct-09 14:30N 47°38' W 122°23'0 0.1
2017-Oct-09 14:00N 47°38' W 122°23'0 0.1
2017-Oct-09 13:30N 47°38' W 122°23'0 0.0
2017-Oct-09 13:00N 47°38' W 122°23'0 0.0
2017-Oct-09 12:30N 47°38' W 122°23'0 0.0
2017-Oct-09 12:00N 47°38' W 122°23'0 0.0
2017-Oct-09 11:30N 47°38' W 122°23'0 0.1
2017-Oct-09 11:00N 47°38' W 122°23'0 0.1
2017-Oct-09 10:30N 47°38' W 122°23'0 0.0
2017-Oct-09 10:00N 47°38' W 122°23'0 0.0
2017-Oct-09 09:31N 47°38' W 122°23'0 0.0
2017-Oct-09 09:00N 47°38' W 122°23'0 0.0
2017-Oct-09 08:30N 47°38' W 122°23'0 0.0
2017-Oct-09 08:00N 47°38' W 122°23'0 0.0
2017-Oct-09 07:30N 47°38' W 122°23'0 0.0
2017-Oct-09 07:00N 47°38' W 122°23'0 0.0
2017-Oct-09 06:30N 47°38' W 122°23'0 0.0
2017-Oct-09 06:00N 47°38' W 122°23'0 0.0
2017-Oct-09 05:30N 47°38' W 122°23'0 0.0
2017-Oct-09 05:00N 47°38' W 122°23'0 0.0
2017-Oct-09 04:30N 47°38' W 122°23'0 0.0
2017-Oct-09 04:00N 47°38' W 122°23'0 0.0
2017-Oct-09 03:30N 47°38' W 122°23'0 0.0
2017-Oct-09 03:00N 47°38' W 122°23'0 0.0
2017-Oct-09 02:30N 47°38' W 122°23'0 0.0
2017-Oct-09 02:00N 47°38' W 122°23'0 0.0
2017-Oct-09 01:30N 47°38' W 122°23'0 0.0
2017-Oct-09 01:00N 47°38' W 122°23'0 0.0
2017-Oct-09 00:30N 47°38' W 122°23'0 0.0
2017-Oct-09 00:00N 47°38' W 122°23'0 0.0
2017-Oct-08 23:30N 47°38' W 122°23'0 0.0
2017-Oct-08 23:00N 47°38' W 122°23'0 0.0
2017-Oct-08 22:30N 47°38' W 122°23'0 0.0
2017-Oct-08 22:00N 47°38' W 122°23'0 0.0
2017-Oct-08 21:30N 47°38' W 122°23'  

Dump ship's entire track history